createdAt,value
2018-07-12T00:00:38.987Z,18.33
2018-07-12T00:03:06.690Z,17.03
2018-07-12T00:05:39.068Z,19.57
2018-07-12T00:08:10.349Z,17.63
2018-07-12T00:13:18.994Z,17.83
2018-07-12T00:15:46.708Z,19.13
2018-07-12T00:18:24.463Z,18.70
2018-07-12T00:20:52.104Z,17.33
2018-07-12T00:23:19.768Z,18.50
2018-07-12T00:25:47.449Z,19.23
2018-07-12T00:28:15.108Z,19.20
2018-07-12T00:30:42.786Z,18.77
2018-07-12T00:33:18.270Z,19.67
2018-07-12T00:35:45.983Z,19.07
2018-07-12T00:38:13.749Z,18.90
2018-07-12T00:40:45.558Z,19.97
2018-07-12T00:43:16.669Z,20.40
2018-07-12T00:45:47.254Z,19.73
2018-07-12T00:48:20.094Z,20.73
2018-07-12T00:50:49.985Z,21.30
2018-07-12T00:55:59.794Z,21.77
2018-07-12T00:58:33.388Z,21.87
2018-07-12T01:01:05.959Z,22.43
2018-07-12T01:03:36.945Z,22.90
2018-07-12T01:06:04.600Z,22.10
2018-07-12T01:08:32.310Z,21.13
2018-07-12T01:11:06.938Z,21.80
2018-07-12T01:13:39.341Z,24.60
2018-07-12T01:16:15.894Z,23.03
2018-07-12T01:18:47.871Z,24.53
2018-07-12T01:21:19.861Z,24.53
2018-07-12T01:23:52.701Z,23.33
2018-07-12T01:26:20.599Z,24.60
2018-07-12T01:28:48.245Z,24.60
2018-07-12T01:31:19.988Z,25.60
2018-07-12T01:33:47.782Z,26.13
2018-07-12T01:36:15.457Z,26.83
2018-07-12T01:38:50.725Z,26.43
2018-07-12T01:41:21.569Z,26.13
2018-07-12T01:43:49.204Z,26.87
2018-07-12T01:46:24.778Z,26.50
2018-07-12T01:48:52.579Z,26.77
2018-07-12T01:51:20.184Z,30.00
2018-07-12T01:53:59.620Z,27.43
2018-07-12T01:56:28.610Z,27.53
2018-07-12T02:01:31.864Z,26.77
2018-07-12T02:03:59.495Z,27.83
2018-07-12T02:06:36.828Z,27.00
2018-07-12T02:09:05.049Z,27.40
2018-07-12T02:11:32.703Z,27.83
2018-07-12T02:16:46.119Z,28.30
2018-07-12T02:19:13.799Z,27.87
2018-07-12T02:21:41.358Z,28.43
2018-07-12T02:24:08.993Z,25.83
2018-07-12T02:26:45.097Z,26.87
2018-07-12T02:29:14.676Z,27.23
2018-07-12T02:31:51.383Z,27.93
2018-07-12T02:34:31.614Z,27.57
2018-07-12T02:37:00.584Z,27.27
2018-07-12T02:39:28.357Z,27.53
2018-07-12T02:42:02.193Z,27.90
2018-07-12T02:44:29.914Z,28.13
2018-07-12T02:46:57.541Z,27.53
2018-07-12T02:49:25.176Z,28.40
2018-07-12T02:52:02.773Z,28.80
2018-07-12T02:54:37.430Z,29.77
2018-07-12T02:57:05.000Z,30.60
2018-07-12T02:59:32.676Z,30.40
2018-07-12T03:02:07.682Z,30.10
2018-07-12T03:04:35.387Z,30.60
2018-07-12T03:07:03.059Z,31.73
2018-07-12T03:09:42.514Z,31.83
2018-07-12T03:12:10.078Z,31.37
2018-07-12T03:14:37.763Z,32.33
2018-07-12T03:17:10.184Z,31.00
2018-07-12T03:19:45.070Z,32.23
2018-07-12T03:24:46.425Z,31.03
2018-07-12T03:27:14.024Z,32.60
2018-07-12T03:29:41.641Z,32.23
2018-07-12T03:32:22.788Z,32.23
2018-07-12T03:34:51.869Z,32.27
2018-07-12T03:37:19.481Z,28.87
2018-07-12T03:39:58.170Z,30.83
2018-07-12T03:42:25.772Z,29.23
2018-07-12T03:44:53.375Z,28.67
2018-07-12T03:47:20.935Z,29.37
2018-07-12T03:49:54.073Z,29.77
2018-07-12T03:52:26.373Z,29.20
2018-07-12T03:55:00.036Z,29.13
2018-07-12T03:57:27.864Z,28.07
2018-07-12T03:59:55.542Z,28.60
2018-07-12T04:02:27.566Z,27.07
2018-07-12T04:04:55.729Z,27.07
2018-07-12T04:07:23.621Z,26.10
2018-07-12T04:09:51.590Z,25.77
2018-07-12T04:12:26.237Z,25.10
2018-07-12T04:14:53.981Z,26.50
2018-07-12T04:17:27.854Z,25.13
2018-07-12T04:19:55.894Z,24.47
2018-07-12T04:22:33.476Z,24.37
2018-07-12T04:25:11.073Z,23.23
2018-07-12T04:27:40.041Z,24.00
2018-07-12T04:30:14.780Z,23.47
2018-07-12T04:32:48.743Z,23.40
2018-07-12T04:35:18.997Z,23.17
2018-07-12T04:37:46.633Z,23.80
2018-07-12T04:40:14.298Z,23.63
2018-07-12T04:42:41.898Z,24.20
2018-07-12T04:45:09.539Z,23.43
2018-07-12T04:47:40.743Z,22.33
2018-07-12T04:50:14.105Z,22.73
2018-07-12T04:52:42.640Z,23.33
2018-07-12T04:55:10.274Z,24.67
2018-07-12T04:57:37.862Z,23.07
2018-07-12T05:00:05.553Z,22.63
2018-07-12T05:02:33.192Z,22.40
2018-07-12T05:05:00.894Z,23.07
2018-07-12T05:07:28.496Z,22.53
2018-07-12T05:09:56.198Z,22.73
2018-07-12T05:12:23.852Z,23.70
2018-07-12T05:14:51.713Z,24.37
2018-07-12T05:17:19.528Z,23.03
2018-07-12T05:19:48.777Z,25.07
2018-07-12T05:22:16.588Z,25.03
2018-07-12T05:24:44.269Z,24.93
2018-07-12T05:27:12.012Z,24.93
2018-07-12T05:29:39.778Z,24.70
2018-07-12T05:32:09.115Z,25.67
2018-07-12T05:34:36.912Z,25.03
2018-07-12T05:37:06.336Z,25.80
2018-07-12T05:39:35.532Z,25.77
2018-07-12T05:42:04.772Z,25.93
2018-07-12T05:44:34.036Z,27.17
2018-07-12T05:47:03.318Z,26.50
2018-07-12T05:49:38.411Z,27.70
2018-07-12T05:52:07.882Z,26.43
2018-07-12T05:54:37.183Z,27.10
2018-07-12T05:57:06.305Z,26.73
2018-07-12T05:59:35.751Z,27.13
2018-07-12T06:02:14.599Z,28.33
2018-07-12T06:04:43.770Z,28.07
2018-07-12T06:07:12.879Z,30.77
2018-07-12T06:09:42.121Z,29.83
2018-07-12T06:12:11.255Z,30.93
2018-07-12T06:14:40.638Z,30.33
2018-07-12T06:17:09.816Z,32.23
2018-07-12T06:19:39.178Z,32.77
2018-07-12T06:22:08.408Z,33.07
2018-07-12T06:24:37.795Z,34.50
2018-07-12T06:27:07.124Z,31.63
2018-07-12T06:29:36.561Z,34.40
2018-07-12T06:32:06.601Z,37.03
2018-07-12T06:34:35.980Z,38.93
2018-07-12T06:37:06.265Z,35.43
2018-07-12T06:39:35.575Z,36.70
2018-07-12T06:42:04.844Z,39.33
2018-07-12T06:44:34.156Z,39.67
2018-07-12T06:47:03.687Z,43.17
2018-07-12T06:49:33.315Z,43.93
2018-07-12T06:52:02.610Z,42.37
2018-07-12T06:54:32.102Z,43.20
2018-07-12T06:57:01.689Z,43.13
2018-07-12T06:59:31.239Z,50.27
2018-07-12T07:02:00.902Z,51.77
2018-07-12T07:04:30.458Z,48.17
2018-07-12T07:06:59.832Z,48.90
2018-07-12T07:09:29.482Z,47.07
2018-07-12T07:11:59.097Z,48.80
2018-07-12T07:14:28.873Z,49.37
2018-07-12T07:16:58.396Z,49.47
2018-07-12T07:19:27.843Z,52.23
2018-07-12T07:21:57.251Z,53.23
2018-07-12T07:24:26.858Z,52.40
2018-07-12T07:26:56.428Z,49.00
2018-07-12T07:29:25.940Z,50.60
2018-07-12T07:31:55.883Z,50.47
2018-07-12T07:34:26.351Z,50.03
2018-07-12T07:36:55.755Z,50.50
2018-07-12T07:39:26.143Z,50.87
2018-07-12T07:41:57.175Z,54.33
2018-07-12T07:44:28.528Z,53.33
2018-07-12T07:46:57.704Z,52.23
2018-07-12T07:49:26.791Z,50.73
2018-07-12T07:51:58.547Z,50.90
2018-07-12T07:54:31.310Z,50.40
2018-07-12T07:57:00.466Z,52.77
2018-07-12T07:59:29.449Z,55.73
2018-07-12T08:01:58.731Z,55.73
2018-07-12T08:04:27.780Z,55.97
2018-07-12T08:06:56.802Z,56.67
2018-07-12T08:09:26.024Z,54.27
2018-07-12T08:11:55.382Z,53.40
2018-07-12T08:14:29.405Z,54.30
2018-07-12T08:17:02.577Z,54.00
2018-07-12T08:19:31.763Z,57.60
2018-07-12T08:22:09.848Z,60.77
2018-07-12T08:24:38.839Z,58.07
2018-07-12T08:27:08.883Z,57.77
2018-07-12T08:29:37.983Z,51.43
2018-07-12T08:32:07.199Z,48.67
2018-07-12T08:34:36.307Z,49.43
2018-07-12T08:37:07.354Z,50.37
2018-07-12T08:39:36.948Z,47.47
2018-07-12T08:42:06.020Z,49.30
2018-07-12T08:44:35.240Z,48.90
2018-07-12T08:47:04.389Z,49.30
2018-07-12T08:49:33.600Z,47.83
2018-07-12T08:52:02.849Z,47.13
2018-07-12T08:54:32.046Z,48.90
2018-07-12T08:57:01.163Z,50.67
2018-07-12T08:59:30.220Z,49.97
2018-07-12T09:01:59.198Z,49.77
2018-07-12T09:04:35.434Z,47.60
2018-07-12T09:07:11.532Z,48.97
2018-07-12T09:09:47.925Z,49.20
2018-07-12T09:12:21.351Z,49.53
2018-07-12T09:14:55.226Z,46.87
2018-07-12T09:17:24.342Z,46.67
2018-07-12T09:19:53.671Z,45.40
2018-07-12T09:22:23.168Z,46.33
2018-07-12T09:24:52.294Z,46.40
2018-07-12T09:27:21.527Z,48.40
2018-07-12T09:29:50.535Z,48.00
2018-07-12T09:32:19.927Z,50.40
2018-07-12T09:34:48.983Z,48.80
2018-07-12T09:37:19.021Z,49.17
2018-07-12T09:39:48.176Z,49.43
2018-07-12T09:42:17.337Z,47.73
2018-07-12T09:44:46.416Z,48.00
2018-07-12T09:47:16.854Z,48.43
2018-07-12T09:49:46.409Z,45.33
2018-07-12T09:52:21.165Z,45.60
2018-07-12T09:54:50.846Z,48.20
2018-07-12T09:57:31.038Z,47.63
2018-07-12T10:00:00.646Z,46.87
2018-07-12T10:02:35.523Z,45.60
2018-07-12T10:05:05.423Z,49.83
2018-07-12T10:07:41.894Z,50.40
2018-07-12T10:10:11.915Z,47.20
2018-07-12T10:12:46.525Z,46.67
2018-07-12T10:15:20.452Z,45.90
2018-07-12T10:17:56.031Z,48.60
2018-07-12T10:20:25.780Z,47.07
2018-07-12T10:22:56.074Z,38.43
2018-07-12T10:25:25.564Z,35.87
2018-07-12T10:27:55.444Z,34.07
2018-07-12T10:30:25.110Z,35.13
2018-07-12T10:32:55.183Z,37.17
2018-07-12T10:35:24.751Z,34.07
2018-07-12T10:37:54.450Z,34.57
2018-07-12T10:40:30.577Z,40.33
2018-07-12T10:43:00.168Z,41.47
2018-07-12T10:45:31.815Z,39.30
2018-07-12T10:48:01.642Z,40.13
2018-07-12T10:50:43.750Z,37.10
2018-07-12T10:53:13.851Z,42.30
2018-07-12T10:55:43.472Z,37.83
2018-07-12T10:58:13.111Z,36.07
2018-07-12T11:00:42.770Z,35.90
2018-07-12T11:03:12.373Z,34.03
2018-07-12T11:05:41.990Z,35.80
2018-07-12T11:08:12.310Z,34.60
2018-07-12T11:10:42.023Z,34.80
2018-07-12T11:13:15.921Z,36.93
2018-07-12T11:15:46.717Z,33.40
2018-07-12T11:18:17.116Z,28.23
2018-07-12T11:20:46.850Z,30.50
2018-07-12T11:23:16.390Z,31.20
2018-07-12T11:25:46.010Z,26.63
2018-07-12T11:28:15.867Z,27.33
2018-07-12T11:30:45.385Z,30.33
2018-07-12T11:33:51.030Z,28.23
2018-07-12T11:36:20.723Z,28.33
2018-07-12T11:38:50.490Z,25.20
2018-07-12T11:41:20.081Z,23.13
2018-07-12T11:43:49.890Z,24.27
2018-07-12T11:46:19.518Z,23.97
2018-07-12T11:48:48.981Z,24.63
2018-07-12T11:51:18.524Z,22.37
2018-07-12T11:53:48.058Z,23.47
2018-07-12T11:56:17.619Z,24.83
2018-07-12T11:58:47.383Z,23.03
2018-07-12T12:01:16.967Z,23.00
2018-07-12T12:03:46.553Z,23.50
2018-07-12T12:06:16.059Z,24.47
2018-07-12T12:08:45.634Z,21.93
2018-07-12T12:11:15.198Z,22.20
2018-07-12T12:13:45.275Z,20.27
2018-07-12T12:16:14.851Z,20.23
2018-07-12T12:18:44.473Z,22.53
2018-07-12T12:21:13.932Z,21.73
2018-07-12T12:23:43.574Z,21.77
2018-07-12T12:26:12.948Z,21.40
2018-07-12T12:28:42.577Z,20.07
2018-07-12T12:31:12.012Z,21.30
2018-07-12T12:33:41.570Z,21.57
2018-07-12T12:36:10.926Z,22.77
2018-07-12T12:38:40.534Z,21.77
2018-07-12T12:41:09.940Z,21.33
2018-07-12T12:43:39.240Z,20.57
2018-07-12T12:46:08.822Z,18.70
2018-07-12T12:48:38.374Z,18.45
2018-07-12T12:51:07.884Z,19.23
2018-07-12T12:53:37.350Z,18.30
2018-07-12T12:56:06.690Z,20.82
2018-07-12T12:58:36.059Z,19.23
2018-07-12T13:01:05.496Z,19.20
2018-07-12T13:03:34.870Z,21.10
2018-07-12T13:06:04.553Z,19.45
2018-07-12T13:08:34.134Z,18.77
2018-07-12T13:11:03.751Z,18.42
2018-07-12T13:13:33.297Z,15.68
2018-07-12T13:16:02.721Z,16.17
2018-07-12T13:18:32.262Z,17.40
2018-07-12T13:21:01.812Z,18.57
2018-07-12T13:23:31.405Z,16.77
2018-07-12T13:26:00.911Z,17.60
2018-07-12T13:28:33.242Z,19.30
2018-07-12T13:31:02.636Z,18.75
2018-07-12T13:33:32.281Z,20.45
2018-07-12T13:36:03.167Z,19.60
2018-07-12T13:38:32.628Z,19.15
2018-07-12T13:41:01.953Z,18.20
2018-07-12T13:43:31.424Z,19.82
2018-07-12T13:46:00.810Z,16.27
2018-07-12T13:48:30.191Z,17.37
2018-07-12T13:50:59.640Z,15.93
2018-07-12T13:53:29.049Z,15.70
2018-07-12T13:55:58.432Z,15.95
2018-07-12T13:58:27.687Z,18.00
2018-07-12T14:00:57.272Z,17.80
2018-07-12T14:03:26.683Z,17.62
2018-07-12T14:05:56.501Z,18.40
2018-07-12T14:08:25.888Z,16.80
2018-07-12T14:10:55.552Z,16.48
2018-07-12T14:13:25.048Z,15.32
2018-07-12T14:15:54.678Z,16.02
2018-07-12T14:18:24.322Z,16.93
2018-07-12T14:20:53.841Z,17.30
2018-07-12T14:23:23.163Z,16.90
2018-07-12T14:25:52.600Z,15.80
2018-07-12T14:28:22.115Z,15.48
2018-07-12T14:30:51.581Z,13.85
2018-07-12T14:33:21.038Z,16.40
2018-07-12T14:35:50.560Z,15.30
2018-07-12T14:38:20.073Z,16.57
2018-07-12T14:40:49.541Z,15.60
2018-07-12T14:43:18.955Z,15.72
2018-07-12T14:45:48.516Z,15.60
2018-07-12T14:48:17.943Z,16.95
2018-07-12T14:50:47.567Z,16.65
2018-07-12T14:53:17.024Z,17.17
2018-07-12T14:55:46.432Z,15.78
2018-07-12T14:58:17.689Z,16.12
2018-07-12T15:00:47.406Z,18.12
2018-07-12T15:03:16.889Z,17.90
2018-07-12T15:05:46.401Z,17.67
2018-07-12T15:08:16.028Z,19.05
2018-07-12T15:10:45.556Z,18.48
2018-07-12T15:13:15.073Z,18.57
2018-07-12T15:15:45.490Z,20.37
2018-07-12T15:18:15.132Z,18.77
2018-07-12T15:20:44.597Z,18.80
2018-07-12T15:23:14.123Z,19.43
2018-07-12T15:25:43.603Z,20.23
2018-07-12T15:28:12.911Z,21.03
2018-07-12T15:30:42.397Z,19.73
2018-07-12T15:33:11.714Z,19.70
2018-07-12T15:35:41.146Z,21.20
2018-07-12T15:38:10.372Z,19.63
2018-07-12T15:40:40.033Z,20.90
2018-07-12T15:43:09.562Z,19.70
2018-07-12T15:45:39.084Z,18.50
2018-07-12T15:48:08.569Z,19.60
2018-07-12T15:50:37.916Z,19.10
2018-07-12T15:53:07.284Z,19.00
2018-07-12T15:55:36.810Z,19.82
2018-07-12T15:58:06.310Z,20.95
2018-07-12T16:00:35.798Z,18.80
2018-07-12T16:03:05.486Z,17.85
2018-07-12T16:05:35.146Z,18.92
2018-07-12T16:08:04.524Z,19.77
2018-07-12T16:10:34.089Z,19.23
2018-07-12T16:13:03.301Z,19.55
2018-07-12T16:15:32.766Z,19.30
2018-07-12T16:18:02.168Z,19.70
2018-07-12T16:20:31.700Z,19.15
2018-07-12T16:23:00.963Z,17.65
2018-07-12T16:25:30.106Z,17.60
2018-07-12T16:27:59.348Z,17.12
2018-07-12T16:30:28.512Z,18.32
2018-07-12T16:32:57.625Z,18.82
2018-07-12T16:35:26.801Z,18.25
2018-07-12T16:37:55.999Z,17.98
2018-07-12T16:40:25.226Z,17.27
2018-07-12T16:42:54.572Z,17.67
2018-07-12T16:45:23.668Z,16.85
2018-07-12T16:47:53.046Z,17.52
2018-07-12T16:50:22.355Z,16.23
2018-07-12T16:52:51.473Z,16.60
2018-07-12T16:55:20.847Z,17.52
2018-07-12T16:57:50.000Z,16.07
2018-07-12T17:00:20.091Z,15.95
2018-07-12T17:02:50.122Z,17.48
2018-07-12T17:05:19.247Z,16.67
2018-07-12T17:07:48.543Z,16.17
2018-07-12T17:10:17.700Z,15.90
2018-07-12T17:12:47.173Z,15.72
2018-07-12T17:15:16.303Z,15.70
2018-07-12T17:17:45.410Z,14.80
2018-07-12T17:20:14.671Z,16.42
2018-07-12T17:22:43.918Z,15.80
2018-07-12T17:25:13.023Z,16.65
2018-07-12T17:27:42.163Z,14.87
2018-07-12T17:30:11.355Z,14.90
2018-07-12T17:32:40.738Z,12.90
2018-07-12T17:35:09.831Z,14.85
2018-07-12T17:37:39.021Z,15.00
2018-07-12T17:40:08.077Z,14.90
2018-07-12T17:42:37.210Z,14.75
2018-07-12T17:45:06.419Z,14.13
2018-07-12T17:47:35.599Z,14.45
2018-07-12T17:50:05.101Z,14.33
2018-07-12T17:52:34.245Z,14.43
2018-07-12T17:55:03.392Z,13.93
2018-07-12T17:57:32.617Z,14.47
2018-07-12T18:00:01.732Z,13.40
2018-07-12T18:02:30.872Z,12.83
2018-07-12T18:04:59.990Z,12.93
2018-07-12T18:07:29.197Z,12.13
2018-07-12T18:09:58.307Z,12.53
2018-07-12T18:12:27.466Z,12.07
2018-07-12T18:14:56.591Z,12.50
2018-07-12T18:17:25.648Z,12.63
2018-07-12T18:19:57.918Z,12.53
2018-07-12T18:22:27.051Z,13.13
2018-07-12T18:24:56.159Z,11.83
2018-07-12T18:27:26.159Z,12.87
2018-07-12T18:29:55.300Z,12.63
2018-07-12T18:32:24.451Z,12.00
2018-07-12T18:34:53.611Z,13.70
2018-07-12T18:37:22.789Z,12.50
2018-07-12T18:39:51.878Z,14.53
2018-07-12T18:42:21.072Z,12.87
2018-07-12T18:44:50.150Z,13.33
2018-07-12T18:47:19.280Z,16.07
2018-07-12T18:49:48.366Z,17.47
2018-07-12T18:52:17.562Z,16.00
2018-07-12T18:54:46.713Z,16.60
2018-07-12T18:57:15.976Z,17.43
2018-07-12T18:59:44.956Z,15.57
2018-07-12T19:02:14.099Z,15.70
2018-07-12T19:04:43.235Z,16.03
2018-07-12T19:07:12.293Z,15.30
2018-07-12T19:09:42.566Z,14.57
2018-07-12T19:12:11.785Z,14.77
2018-07-12T19:14:40.945Z,15.27
2018-07-12T19:17:10.055Z,13.40
2018-07-12T19:19:39.094Z,12.80
2018-07-12T19:22:08.210Z,9.77
2018-07-12T19:24:37.399Z,9.27
2018-07-12T19:27:06.492Z,7.70
2018-07-12T19:29:35.754Z,6.60
2018-07-12T19:32:04.878Z,6.17
2018-07-12T19:34:34.154Z,5.80
2018-07-12T19:37:03.278Z,6.07
2018-07-12T19:39:32.436Z,4.93
2018-07-12T19:42:01.564Z,5.10
2018-07-12T19:44:30.735Z,4.80
2018-07-12T19:46:59.913Z,4.97
2018-07-12T19:49:29.016Z,4.47
2018-07-12T19:51:57.982Z,5.07
2018-07-12T19:54:28.453Z,4.60
2018-07-12T19:56:58.510Z,4.83
2018-07-12T19:59:27.679Z,5.00
2018-07-12T20:01:56.759Z,5.37
2018-07-12T20:04:25.732Z,5.50
2018-07-12T20:06:54.831Z,4.97
2018-07-12T20:09:23.946Z,4.90
2018-07-12T20:11:52.998Z,5.43
2018-07-12T20:14:22.197Z,7.23
2018-07-12T20:16:51.259Z,7.67
2018-07-12T20:19:20.304Z,9.13
2018-07-12T20:21:49.540Z,10.60
2018-07-12T20:24:20.075Z,8.30
2018-07-12T20:26:49.179Z,8.00
2018-07-12T20:29:18.399Z,8.30
2018-07-12T20:31:47.431Z,8.30
2018-07-12T20:34:16.706Z,9.73
2018-07-12T20:36:45.942Z,9.30
2018-07-12T20:39:15.068Z,9.57
2018-07-12T20:41:44.171Z,8.80
2018-07-12T20:44:13.371Z,8.73
2018-07-12T20:46:42.334Z,7.97
2018-07-12T20:49:11.489Z,7.97
2018-07-12T20:51:40.618Z,8.70
2018-07-12T20:54:09.764Z,9.07
2018-07-12T20:56:38.854Z,10.27
2018-07-12T20:59:08.127Z,9.87
2018-07-12T21:01:37.245Z,11.20
2018-07-12T21:04:06.425Z,11.53
2018-07-12T21:06:35.552Z,11.97
2018-07-12T21:09:11.503Z,12.90
2018-07-12T21:11:41.541Z,13.27
2018-07-12T21:14:10.838Z,13.63
2018-07-12T21:16:39.895Z,14.83
2018-07-12T21:19:09.080Z,14.83
2018-07-12T21:21:38.262Z,15.90
2018-07-12T21:24:07.476Z,16.17
2018-07-12T21:26:36.385Z,16.13
2018-07-12T21:29:05.347Z,15.83
2018-07-12T21:31:40.958Z,16.23
2018-07-12T21:34:10.100Z,14.87
2018-07-12T21:36:39.198Z,16.43
2018-07-12T21:39:10.072Z,13.97
2018-07-12T21:41:39.422Z,16.00
2018-07-12T21:44:08.581Z,14.57
2018-07-12T21:46:37.702Z,13.70
2018-07-12T21:49:06.820Z,14.90
2018-07-12T21:51:35.998Z,14.43
2018-07-12T21:54:05.212Z,14.00
2018-07-12T21:56:34.310Z,15.17
2018-07-12T21:59:03.580Z,14.20
2018-07-12T22:01:32.720Z,14.50
2018-07-12T22:04:01.780Z,14.50
2018-07-12T22:06:41.791Z,15.30
2018-07-12T22:09:10.924Z,15.30
2018-07-12T22:11:39.899Z,14.33
2018-07-12T22:14:09.040Z,14.37
2018-07-12T22:16:38.078Z,15.27
2018-07-12T22:19:07.236Z,15.97
2018-07-12T22:21:37.191Z,14.63
2018-07-12T22:24:06.329Z,16.00
2018-07-12T22:26:35.360Z,15.57
2018-07-12T22:29:04.418Z,15.87
2018-07-12T22:31:33.584Z,15.83
2018-07-12T22:34:02.615Z,17.40
2018-07-12T22:36:31.819Z,17.30
2018-07-12T22:39:00.838Z,16.10
2018-07-12T22:41:29.967Z,14.13
2018-07-12T22:43:59.039Z,14.77
2018-07-12T22:46:28.180Z,14.13
2018-07-12T22:48:57.327Z,13.73
2018-07-12T22:51:26.423Z,12.77
2018-07-12T22:53:55.518Z,12.00
2018-07-12T22:56:24.645Z,12.50
2018-07-12T22:58:53.719Z,11.40
2018-07-12T23:01:22.854Z,11.53
2018-07-12T23:03:52.004Z,11.90
2018-07-12T23:06:21.077Z,11.27
2018-07-12T23:08:50.158Z,11.20
2018-07-12T23:11:19.318Z,11.50
2018-07-12T23:13:48.698Z,12.37
2018-07-12T23:16:23.983Z,12.60
2018-07-12T23:18:53.053Z,13.47
2018-07-12T23:21:22.255Z,11.80
2018-07-12T23:23:51.300Z,11.10
2018-07-12T23:26:20.458Z,12.07
2018-07-12T23:28:49.571Z,12.27
2018-07-12T23:31:18.758Z,11.03
2018-07-12T23:33:47.855Z,10.33
2018-07-12T23:36:17.059Z,8.30
2018-07-12T23:38:46.169Z,9.33
2018-07-12T23:41:15.247Z,9.80
2018-07-12T23:43:44.346Z,8.47
2018-07-12T23:46:13.510Z,8.63
2018-07-12T23:48:42.569Z,10.93
2018-07-12T23:51:11.667Z,11.80
2018-07-12T23:53:40.814Z,12.13
2018-07-12T23:56:09.959Z,13.30
2018-07-12T23:58:39.033Z,14.17
